createdAt,value
2018-09-15T00:00:21.236Z,13.43
2018-09-15T00:02:49.813Z,11.20
2018-09-15T00:05:18.089Z,12.00
2018-09-15T00:07:46.177Z,17.87
2018-09-15T00:10:14.313Z,10.13
2018-09-15T00:12:42.532Z,15.40
2018-09-15T00:15:10.773Z,12.10
2018-09-15T00:17:41.669Z,10.30
2018-09-15T00:20:10.112Z,11.57
2018-09-15T00:22:39.347Z,9.93
2018-09-15T00:25:07.692Z,10.40
2018-09-15T00:27:35.866Z,9.90
2018-09-15T00:30:04.053Z,7.50
2018-09-15T00:32:32.164Z,8.90
2018-09-15T00:35:00.117Z,9.87
2018-09-15T00:37:28.461Z,13.73
2018-09-15T00:39:56.382Z,8.00
2018-09-15T00:42:24.388Z,7.87
2018-09-15T00:44:52.308Z,6.67
2018-09-15T00:47:20.264Z,7.43
2018-09-15T00:49:48.337Z,8.07
2018-09-15T00:52:16.400Z,7.23
2018-09-15T00:54:44.493Z,11.13
2018-09-15T00:57:12.528Z,8.37
2018-09-15T00:59:40.826Z,8.70
2018-09-15T01:02:09.089Z,11.73
2018-09-15T01:04:37.330Z,15.63
2018-09-15T01:07:05.420Z,8.57
2018-09-15T01:09:33.626Z,11.80
2018-09-15T01:12:01.637Z,9.83
2018-09-15T01:14:29.840Z,11.73
2018-09-15T01:16:57.659Z,10.03
2018-09-15T01:19:25.562Z,10.57
2018-09-15T01:21:53.491Z,9.33
2018-09-15T01:24:21.392Z,11.13
2018-09-15T01:26:49.534Z,9.97
2018-09-15T01:29:17.722Z,13.33
2018-09-15T01:31:45.986Z,9.43
2018-09-15T01:34:14.085Z,11.83
2018-09-15T01:36:42.140Z,9.77
2018-09-15T01:39:10.647Z,17.07
2018-09-15T01:41:39.193Z,9.17
2018-09-15T01:44:07.189Z,9.97
2018-09-15T01:46:35.140Z,8.50
2018-09-15T01:49:03.122Z,11.57
2018-09-15T01:51:31.084Z,10.10
2018-09-15T01:53:58.982Z,8.77
2018-09-15T01:56:27.051Z,9.67
2018-09-15T01:58:55.165Z,8.50
2018-09-15T02:01:23.096Z,11.43
2018-09-15T02:03:51.035Z,9.77
2018-09-15T02:06:19.048Z,9.43
2018-09-15T02:08:47.160Z,10.50
2018-09-15T02:11:15.230Z,10.13
2018-09-15T02:13:43.316Z,15.30
2018-09-15T02:16:11.389Z,17.80
2018-09-15T02:18:39.823Z,10.50
2018-09-15T02:21:08.700Z,10.47
2018-09-15T02:23:37.181Z,12.63
2018-09-15T02:26:05.440Z,10.83
2018-09-15T02:28:33.688Z,13.57
2018-09-15T02:31:01.831Z,11.33
2018-09-15T02:33:29.780Z,10.97
2018-09-15T02:35:57.806Z,11.13
2018-09-15T02:38:25.759Z,10.23
2018-09-15T02:40:53.682Z,10.90
2018-09-15T02:43:21.597Z,11.80
2018-09-15T02:45:49.846Z,12.07
2018-09-15T02:48:17.989Z,9.60
2018-09-15T02:50:46.143Z,14.30
2018-09-15T02:53:14.335Z,13.20
2018-09-15T02:55:42.697Z,11.50
2018-09-15T02:58:11.012Z,12.40
2018-09-15T03:00:39.365Z,13.83
2018-09-15T03:03:07.806Z,14.90
2018-09-15T03:05:35.812Z,11.50
2018-09-15T03:08:04.438Z,15.47
2018-09-15T03:10:32.575Z,12.97
2018-09-15T03:13:00.567Z,13.43
2018-09-15T03:15:28.590Z,11.30
2018-09-15T03:17:56.528Z,14.97
2018-09-15T03:20:24.499Z,16.87
2018-09-15T03:22:52.426Z,12.67
2018-09-15T03:25:20.394Z,14.87
2018-09-15T03:27:48.491Z,15.70
2018-09-15T03:30:16.695Z,13.27
2018-09-15T03:32:44.762Z,13.83
2018-09-15T03:35:12.886Z,12.97
2018-09-15T03:37:41.108Z,14.83
2018-09-15T03:40:09.534Z,18.10
2018-09-15T03:42:37.704Z,17.40
2018-09-15T03:45:06.038Z,12.70
2018-09-15T03:47:34.180Z,20.80
2018-09-15T03:50:02.408Z,15.30
2018-09-15T03:52:30.396Z,18.50
2018-09-15T03:54:58.348Z,20.33
2018-09-15T03:57:26.297Z,20.77
2018-09-15T03:59:54.318Z,22.00
2018-09-15T04:02:22.230Z,21.20
2018-09-15T04:04:50.267Z,19.50
2018-09-15T04:07:18.307Z,23.43
2018-09-15T04:09:46.492Z,21.57
2018-09-15T04:12:14.645Z,22.00
2018-09-15T04:14:42.770Z,20.70
2018-09-15T04:17:10.997Z,26.03
2018-09-15T04:19:39.248Z,20.60
2018-09-15T04:22:08.628Z,25.47
2018-09-15T04:24:37.106Z,21.60
2018-09-15T04:27:05.184Z,20.90
2018-09-15T04:29:33.392Z,21.67
2018-09-15T04:32:01.460Z,33.83
2018-09-15T04:34:29.429Z,28.83
2018-09-15T04:36:57.352Z,23.70
2018-09-15T04:39:25.288Z,30.60
2018-09-15T04:41:53.281Z,26.20
2018-09-15T04:44:21.153Z,33.03
2018-09-15T04:46:49.146Z,34.03
2018-09-15T04:49:17.224Z,34.70
2018-09-15T04:51:45.371Z,41.40
2018-09-15T04:54:13.499Z,33.80
2018-09-15T04:56:41.559Z,38.27
2018-09-15T04:59:09.765Z,34.67
2018-09-15T05:01:38.669Z,39.23
2018-09-15T05:04:07.045Z,37.10
2018-09-15T05:06:35.579Z,38.47
2018-09-15T05:09:04.160Z,42.83
2018-09-15T05:11:32.359Z,46.00
2018-09-15T05:14:00.306Z,35.70
2018-09-15T05:16:28.212Z,40.03
2018-09-15T05:18:56.188Z,37.63
2018-09-15T05:21:24.157Z,52.60
2018-09-15T05:23:52.084Z,46.43
2018-09-15T05:26:20.086Z,44.20
2018-09-15T05:28:48.226Z,46.97
2018-09-15T05:31:16.272Z,47.97
2018-09-15T05:33:44.386Z,43.33
2018-09-15T05:36:12.599Z,50.70
2018-09-15T05:38:40.805Z,48.30
2018-09-15T05:41:09.058Z,49.20
2018-09-15T05:43:37.278Z,55.33
2018-09-15T05:46:05.374Z,56.83
2018-09-15T05:48:33.746Z,56.30
2018-09-15T05:51:01.703Z,53.07
2018-09-15T05:53:29.685Z,49.90
2018-09-15T05:55:57.659Z,61.67
2018-09-15T05:58:25.588Z,59.33
2018-09-15T06:00:54.024Z,49.37
2018-09-15T06:03:22.035Z,58.97
2018-09-15T06:05:50.090Z,62.77
2018-09-15T06:08:18.110Z,60.23
2018-09-15T06:10:46.116Z,63.70
2018-09-15T06:13:14.561Z,51.30
2018-09-15T06:15:42.903Z,57.30
2018-09-15T06:18:11.285Z,55.17
2018-09-15T06:20:39.924Z,62.07
2018-09-15T06:23:09.265Z,52.90
2018-09-15T06:25:37.795Z,53.73
2018-09-15T06:28:06.241Z,66.93
2018-09-15T06:30:37.463Z,57.53
2018-09-15T06:33:06.875Z,60.20
2018-09-15T06:35:35.644Z,67.40
2018-09-15T06:38:04.012Z,63.87
2018-09-15T06:40:32.097Z,69.57
2018-09-15T06:43:00.856Z,64.70
2018-09-15T06:45:29.582Z,62.67
2018-09-15T06:47:57.544Z,58.27
2018-09-15T06:50:25.524Z,61.03
2018-09-15T06:52:53.468Z,57.50
2018-09-15T06:55:21.441Z,63.57
2018-09-15T06:57:49.538Z,60.43
2018-09-15T07:00:17.739Z,50.63
2018-09-15T07:02:45.904Z,64.83
2018-09-15T07:05:14.089Z,60.57
2018-09-15T07:07:42.185Z,67.30
2018-09-15T07:10:10.376Z,58.33
2018-09-15T07:12:39.472Z,56.23
2018-09-15T07:15:07.720Z,65.83
2018-09-15T07:17:35.803Z,48.60
2018-09-15T07:20:03.941Z,47.63
2018-09-15T07:22:33.508Z,55.73
2018-09-15T07:25:02.573Z,55.13
2018-09-15T07:27:30.499Z,49.40
2018-09-15T07:30:06.244Z,49.37
2018-09-15T07:32:34.953Z,44.87
2018-09-15T07:35:04.191Z,45.33
2018-09-15T07:37:33.297Z,44.30
2018-09-15T07:40:02.623Z,48.93
2018-09-15T07:42:32.273Z,37.43
2018-09-15T07:45:02.050Z,41.47
2018-09-15T07:47:32.831Z,45.80
2018-09-15T07:50:02.450Z,47.30
2018-09-15T07:52:33.508Z,49.57
2018-09-15T07:55:03.541Z,46.37
2018-09-15T07:57:33.079Z,47.77
2018-09-15T08:00:03.617Z,48.67
2018-09-15T08:02:32.833Z,45.07
2018-09-15T08:05:01.148Z,43.10
2018-09-15T08:07:29.267Z,43.97
2018-09-15T08:09:57.677Z,49.03
2018-09-15T08:12:25.966Z,41.77
2018-09-15T08:14:54.261Z,49.87
2018-09-15T08:17:23.049Z,43.07
2018-09-15T08:22:36.902Z,49.93
2018-09-15T08:25:09.588Z,47.23
2018-09-15T08:27:39.409Z,39.30
2018-09-15T08:30:17.562Z,45.97
2018-09-15T08:32:46.334Z,45.90
2018-09-15T08:35:15.385Z,54.40
2018-09-15T08:37:44.624Z,53.40
2018-09-15T08:40:13.191Z,47.93
2018-09-15T08:42:44.930Z,55.33
2018-09-15T08:45:13.848Z,38.90
2018-09-15T08:47:43.520Z,43.33
2018-09-15T08:50:16.720Z,41.47
2018-09-15T08:52:45.662Z,37.00
2018-09-15T08:55:16.505Z,38.83
2018-09-15T08:57:44.991Z,43.63
2018-09-15T09:00:13.656Z,43.53
2018-09-15T09:02:42.571Z,45.37
2018-09-15T09:07:44.699Z,37.40
2018-09-15T09:10:13.084Z,40.10
2018-09-15T09:12:42.961Z,47.23
2018-09-15T09:15:11.838Z,38.60
2018-09-15T09:17:43.048Z,36.93
2018-09-15T09:20:12.030Z,34.10
2018-09-15T09:22:41.011Z,39.00
2018-09-15T09:25:09.907Z,38.23
2018-09-15T09:27:38.583Z,36.30
2018-09-15T09:30:07.349Z,39.87
2018-09-15T09:32:37.987Z,29.90
2018-09-15T09:35:08.485Z,34.47
2018-09-15T09:37:40.889Z,34.13
2018-09-15T09:40:10.488Z,38.83
2018-09-15T09:42:39.542Z,38.90
2018-09-15T09:45:09.912Z,33.43
2018-09-15T09:47:40.349Z,27.10
2018-09-15T09:50:09.510Z,32.47
2018-09-15T09:52:38.372Z,29.60
2018-09-15T09:55:09.717Z,30.03
2018-09-15T09:57:38.882Z,32.03
2018-09-15T10:00:07.504Z,32.70
2018-09-15T10:02:36.022Z,27.60
2018-09-15T10:05:04.462Z,32.00
2018-09-15T10:07:33.033Z,39.73
2018-09-15T10:10:07.406Z,31.23
2018-09-15T10:12:35.749Z,33.20
2018-09-15T10:15:05.046Z,29.50
2018-09-15T10:17:34.170Z,27.87
2018-09-15T10:20:13.605Z,31.73
2018-09-15T10:22:42.336Z,37.17
2018-09-15T10:27:55.157Z,28.43
2018-09-15T10:30:23.191Z,24.60
2018-09-15T10:32:52.637Z,26.70
2018-09-15T10:35:20.947Z,20.10
2018-09-15T10:37:49.637Z,23.80
2018-09-15T10:40:18.088Z,25.30
2018-09-15T10:42:46.933Z,33.27
2018-09-15T10:45:15.722Z,31.80
2018-09-15T10:47:44.276Z,22.47
2018-09-15T10:50:13.090Z,23.03
2018-09-15T10:52:41.739Z,20.10
2018-09-15T10:55:11.093Z,22.90
2018-09-15T10:57:40.150Z,17.93
2018-09-15T11:00:09.058Z,14.30
2018-09-15T11:02:37.970Z,21.53
2018-09-15T11:05:06.173Z,20.23
2018-09-15T11:07:34.965Z,18.97
2018-09-15T11:10:04.130Z,17.33
2018-09-15T11:12:32.913Z,16.43
2018-09-15T11:15:05.716Z,15.53
2018-09-15T11:17:34.697Z,18.43
2018-09-15T11:20:03.137Z,15.63
2018-09-15T11:22:32.130Z,17.60
2018-09-15T11:25:00.498Z,16.93
2018-09-15T11:27:28.705Z,16.87
2018-09-15T11:29:57.817Z,15.23
2018-09-15T11:32:26.021Z,14.80
2018-09-15T11:34:54.647Z,11.90
2018-09-15T11:37:24.013Z,16.67
2018-09-15T11:39:52.789Z,15.90
2018-09-15T11:42:21.177Z,16.83
2018-09-15T11:44:49.672Z,13.13
2018-09-15T11:47:18.891Z,12.23
2018-09-15T11:49:48.926Z,13.40
2018-09-15T11:52:17.798Z,13.63
2018-09-15T11:54:46.236Z,11.97
2018-09-15T11:57:15.550Z,14.63
2018-09-15T11:59:44.142Z,16.40
2018-09-15T12:02:13.923Z,16.63
2018-09-15T12:04:43.136Z,18.20
2018-09-15T12:07:11.799Z,12.37
2018-09-15T12:09:40.631Z,13.10
2018-09-15T12:12:09.812Z,13.43
2018-09-15T12:14:39.668Z,17.47
2018-09-15T12:17:08.736Z,12.73
2018-09-15T12:19:37.344Z,15.20
2018-09-15T12:22:05.438Z,14.67
2018-09-15T12:24:37.692Z,19.00
2018-09-15T12:27:09.548Z,15.00
2018-09-15T12:29:40.536Z,15.50
2018-09-15T12:32:13.783Z,22.53
2018-09-15T12:34:42.810Z,16.13
2018-09-15T12:37:11.330Z,13.60
2018-09-15T12:39:42.522Z,14.73
2018-09-15T12:42:12.124Z,12.57
2018-09-15T12:44:41.079Z,14.93
2018-09-15T12:47:10.132Z,13.93
2018-09-15T12:49:41.131Z,16.10
2018-09-15T12:52:09.989Z,13.63
2018-09-15T12:54:39.246Z,17.83
2018-09-15T12:57:13.255Z,15.53
2018-09-15T13:02:15.874Z,13.70
2018-09-15T13:04:45.791Z,20.23
2018-09-15T13:07:14.475Z,13.33
2018-09-15T13:09:51.899Z,12.13
2018-09-15T13:14:56.392Z,16.87
2018-09-15T13:17:30.367Z,20.77
2018-09-15T13:22:41.886Z,16.90
2018-09-15T13:25:18.535Z,14.40
2018-09-15T13:27:54.820Z,12.50
2018-09-15T13:30:37.407Z,16.03
2018-09-15T13:33:08.750Z,13.37
2018-09-15T13:38:15.675Z,11.20
2018-09-15T13:40:51.552Z,14.17
2018-09-15T13:43:20.142Z,20.83
2018-09-15T13:45:59.034Z,11.50
2018-09-15T13:51:06.548Z,12.20
2018-09-15T13:53:43.686Z,13.80
2018-09-15T13:56:20.262Z,14.33
2018-09-15T14:01:27.170Z,15.33
2018-09-15T14:03:55.654Z,12.80
2018-09-15T14:06:28.843Z,11.30
2018-09-15T14:11:40.021Z,16.30
2018-09-15T14:14:14.671Z,18.83
2018-09-15T14:16:43.311Z,15.80
2018-09-15T14:19:12.027Z,14.63
2018-09-15T14:21:41.547Z,12.37
2018-09-15T14:24:10.425Z,14.30
2018-09-15T14:26:41.124Z,18.03
2018-09-15T14:29:09.998Z,22.00
2018-09-15T14:31:39.315Z,16.03
2018-09-15T14:34:07.460Z,13.07
2018-09-15T14:36:39.762Z,13.90
2018-09-15T14:39:13.342Z,15.80
2018-09-15T14:41:42.453Z,15.17
2018-09-15T14:44:11.321Z,13.17
2018-09-15T14:46:43.408Z,20.53
2018-09-15T14:49:13.705Z,10.13
2018-09-15T14:51:42.698Z,12.07
2018-09-15T14:54:15.439Z,16.67
2018-09-15T14:56:45.451Z,20.63
2018-09-15T14:59:14.131Z,12.03
2018-09-15T15:01:47.657Z,13.47
2018-09-15T15:04:16.399Z,14.00
2018-09-15T15:09:18.745Z,11.50
2018-09-15T15:11:47.671Z,11.70
2018-09-15T15:14:20.213Z,20.57
2018-09-15T15:16:56.972Z,17.70
2018-09-15T15:22:03.963Z,16.03
2018-09-15T15:24:42.968Z,14.30
2018-09-15T15:29:51.447Z,14.93
2018-09-15T15:40:30.107Z,10.00
2018-09-15T15:45:51.660Z,15.43
2018-09-15T15:48:20.111Z,11.33
2018-09-15T15:50:50.704Z,10.73
2018-09-15T15:53:27.640Z,13.70
2018-09-15T15:56:00.718Z,12.90
2018-09-15T15:58:29.531Z,14.00
2018-09-15T16:03:36.203Z,15.30
2018-09-15T16:06:06.532Z,20.07
2018-09-15T16:13:57.458Z,20.30
2018-09-15T16:19:11.559Z,13.13
2018-09-15T16:21:40.590Z,16.13
2018-09-15T16:24:09.973Z,15.83
2018-09-15T16:26:40.616Z,13.33
2018-09-15T16:29:13.630Z,11.57
2018-09-15T16:31:48.686Z,13.80
2018-09-15T16:34:21.035Z,14.17
2018-09-15T16:36:54.619Z,13.77
2018-09-15T16:42:01.363Z,14.17
2018-09-15T16:44:35.162Z,19.20
2018-09-15T16:47:04.125Z,12.47
2018-09-15T16:52:16.684Z,14.07
2018-09-15T16:54:45.564Z,11.10
2018-09-15T16:57:22.475Z,15.10
2018-09-15T16:59:59.681Z,13.23
2018-09-15T17:02:36.057Z,12.77
2018-09-15T17:07:40.429Z,10.73
2018-09-15T17:10:09.763Z,14.30
2018-09-15T17:12:43.802Z,14.97
2018-09-15T17:15:13.729Z,10.00
2018-09-15T17:17:42.211Z,12.13
2018-09-15T17:20:15.117Z,10.07
2018-09-15T17:25:30.595Z,15.93
2018-09-15T17:28:09.733Z,11.43
2018-09-15T17:33:49.606Z,12.80
2018-09-15T17:36:26.761Z,14.83
2018-09-15T17:39:05.006Z,11.13
2018-09-15T17:41:39.269Z,9.60
2018-09-15T17:44:12.989Z,11.77
2018-09-15T17:49:22.329Z,16.60
2018-09-15T17:51:50.661Z,12.37
2018-09-15T17:54:19.127Z,12.43
2018-09-15T17:56:47.425Z,13.60
2018-09-15T17:59:15.837Z,12.73
2018-09-15T18:01:44.432Z,11.00
2018-09-15T18:04:13.318Z,16.30
2018-09-15T18:09:23.528Z,11.33
2018-09-15T18:11:52.754Z,11.07
2018-09-15T18:14:23.698Z,14.43
2018-09-15T18:16:56.382Z,11.03
2018-09-15T18:22:15.347Z,10.17
2018-09-15T18:24:51.087Z,14.03
2018-09-15T18:27:23.654Z,20.10
2018-09-15T18:32:36.385Z,12.90
2018-09-15T18:35:06.842Z,13.23
2018-09-15T18:37:35.690Z,14.97
2018-09-15T18:40:08.692Z,12.37
2018-09-15T18:42:39.090Z,11.20
2018-09-15T18:45:15.070Z,13.63
2018-09-15T18:47:52.237Z,14.93
2018-09-15T18:55:35.494Z,13.40
2018-09-15T19:03:36.120Z,15.83
2018-09-15T19:08:49.250Z,15.33
2018-09-15T19:11:17.577Z,21.27
2018-09-15T19:13:46.561Z,21.73
2018-09-15T19:16:15.949Z,15.40
2018-09-15T19:18:45.189Z,19.40
2018-09-15T19:21:14.861Z,20.40
2018-09-15T19:23:44.446Z,16.53
2018-09-15T19:26:14.687Z,13.90
2018-09-15T19:28:42.956Z,19.77
2018-09-15T19:31:12.625Z,27.00
2018-09-15T19:33:42.008Z,15.30
2018-09-15T19:36:15.748Z,17.13
2018-09-15T19:41:24.757Z,17.40
2018-09-15T19:43:54.343Z,18.13
2018-09-15T19:46:22.673Z,13.90
2018-09-15T19:48:54.999Z,15.87
2018-09-15T19:53:58.949Z,22.00
2018-09-15T19:56:27.435Z,26.97
2018-09-15T19:58:56.140Z,16.63
2018-09-15T20:01:24.550Z,20.70
2018-09-15T20:06:39.517Z,18.80
2018-09-15T20:09:12.790Z,16.90
2018-09-15T20:11:41.398Z,16.93
2018-09-15T20:14:09.786Z,23.53
2018-09-15T20:16:38.420Z,16.37
2018-09-15T20:19:06.542Z,13.93
2018-09-15T20:21:34.576Z,15.60
2018-09-15T20:24:09.821Z,10.53
2018-09-15T20:26:38.164Z,10.70
2018-09-15T20:29:07.165Z,16.83
2018-09-15T20:31:35.395Z,12.30
2018-09-15T20:34:03.801Z,10.97
2018-09-15T20:36:32.981Z,10.97
2018-09-15T20:39:02.205Z,15.47
2018-09-15T20:44:12.722Z,19.20
2018-09-15T20:46:42.632Z,14.97
2018-09-15T20:49:11.933Z,16.33
2018-09-15T20:51:40.620Z,20.47
2018-09-15T20:54:14.808Z,18.20
2018-09-15T20:56:43.614Z,18.97
2018-09-15T20:59:12.817Z,24.53
2018-09-15T21:01:41.713Z,26.03
2018-09-15T21:04:11.991Z,22.23
2018-09-15T21:06:40.872Z,21.60
2018-09-15T21:09:11.198Z,17.40
2018-09-15T21:11:42.525Z,14.43
2018-09-15T21:14:10.863Z,18.17
2018-09-15T21:16:48.194Z,16.70
2018-09-15T21:19:17.254Z,18.67
2018-09-15T21:21:46.015Z,24.30
2018-09-15T21:24:14.700Z,18.73
2018-09-15T21:26:43.168Z,18.80
2018-09-15T21:29:11.938Z,22.73
2018-09-15T21:31:40.875Z,26.13
2018-09-15T21:34:10.586Z,27.10
2018-09-15T21:36:39.005Z,20.83
2018-09-15T21:39:11.245Z,23.77
2018-09-15T21:41:40.268Z,25.83
2018-09-15T21:44:10.375Z,25.13
2018-09-15T21:46:41.967Z,27.73
2018-09-15T21:49:10.588Z,22.07
2018-09-15T21:51:39.144Z,22.37
2018-09-15T21:54:15.742Z,24.40
2018-09-15T21:56:44.513Z,21.03
2018-09-15T21:59:13.975Z,22.97
2018-09-15T22:01:51.214Z,23.80
2018-09-15T22:04:23.494Z,30.63
2018-09-15T22:07:00.118Z,28.03
2018-09-15T22:12:00.939Z,24.47
2018-09-15T22:17:15.497Z,25.80
2018-09-15T22:19:49.342Z,28.87
2018-09-15T22:22:18.256Z,24.23
2018-09-15T22:24:46.602Z,23.73
2018-09-15T22:27:19.391Z,23.20
2018-09-15T22:29:48.452Z,23.13
2018-09-15T22:34:57.665Z,21.07
2018-09-15T22:37:26.062Z,27.33
2018-09-15T22:39:54.155Z,22.50
2018-09-15T22:42:22.369Z,27.23
2018-09-15T22:44:50.519Z,26.33
2018-09-15T22:47:18.641Z,23.03
2018-09-15T22:49:51.013Z,21.40
2018-09-15T22:52:23.312Z,33.93
2018-09-15T22:54:52.306Z,29.67
2018-09-15T22:57:22.254Z,32.93
2018-09-15T22:59:55.337Z,22.43
2018-09-15T23:02:26.489Z,24.00
2018-09-15T23:04:54.635Z,22.93
2018-09-15T23:07:28.398Z,28.53
2018-09-15T23:09:56.735Z,25.63
2018-09-15T23:12:33.292Z,28.60
2018-09-15T23:15:01.675Z,20.57
2018-09-15T23:17:30.621Z,24.77
2018-09-15T23:19:58.837Z,20.67
2018-09-15T23:22:26.917Z,26.93
2018-09-15T23:24:55.147Z,29.87
2018-09-15T23:27:23.683Z,31.57
2018-09-15T23:29:51.857Z,25.10
2018-09-15T23:32:19.965Z,23.40
2018-09-15T23:34:48.333Z,23.73
2018-09-15T23:37:17.681Z,27.63
2018-09-15T23:39:46.462Z,24.23
2018-09-15T23:42:14.685Z,28.93
2018-09-15T23:44:43.886Z,28.03
2018-09-15T23:47:12.732Z,29.27
2018-09-15T23:49:41.169Z,33.87
2018-09-15T23:52:10.705Z,29.60
2018-09-15T23:54:39.429Z,24.23
2018-09-15T23:57:08.693Z,28.33
2018-09-15T23:59:37.910Z,23.80
